createdAt,value
2024-03-05T00:01:53.218Z,99965.00
2024-03-05T00:04:55.105Z,99965.94
2024-03-05T00:07:56.948Z,99967.94
2024-03-05T00:10:58.853Z,99962.56
2024-03-05T00:14:00.780Z,99959.31
2024-03-05T00:17:04.397Z,99967.31
2024-03-05T00:20:14.312Z,99963.03
2024-03-05T00:23:16.184Z,99954.56
2024-03-05T00:26:19.349Z,99961.47
2024-03-05T00:29:21.168Z,99954.09
2024-03-05T00:32:24.250Z,99956.72
2024-03-05T00:35:26.050Z,99951.63
2024-03-05T00:38:33.573Z,99960.84
2024-03-05T00:41:36.028Z,99955.19
2024-03-05T00:44:37.827Z,99961.47
2024-03-05T00:47:40.959Z,99958.38
2024-03-05T00:50:43.267Z,99966.09
2024-03-05T00:53:44.977Z,99976.41
2024-03-05T00:56:46.805Z,99971.94
2024-03-05T00:59:49.815Z,99969.94
2024-03-05T01:02:53.001Z,99969.47
2024-03-05T01:05:54.731Z,99969.47
2024-03-05T01:08:56.844Z,99974.22
2024-03-05T01:11:58.779Z,99968.25
2024-03-05T01:15:01.390Z,99974.41
2024-03-05T01:18:05.513Z,99971.00
2024-03-05T01:21:07.490Z,99971.94
2024-03-05T01:24:12.166Z,99963.50
2024-03-05T01:27:14.127Z,99967.34
2024-03-05T01:30:15.884Z,99971.94
2024-03-05T01:33:22.005Z,99974.41
2024-03-05T01:36:24.370Z,99976.84
2024-03-05T01:39:30.211Z,99971.63
2024-03-05T01:42:32.207Z,99965.31
2024-03-05T01:45:34.563Z,99960.88
2024-03-05T01:48:38.039Z,99962.41
2024-03-05T01:51:40.407Z,99962.09
2024-03-05T01:54:43.203Z,99971.31
2024-03-05T01:57:47.752Z,99979.16
2024-03-05T02:00:50.078Z,99973.16
2024-03-05T02:03:55.156Z,99970.25
2024-03-05T02:06:57.741Z,99974.56
2024-03-05T02:09:59.732Z,99974.56
2024-03-05T02:13:01.953Z,99971.78
2024-03-05T02:16:05.218Z,99971.78
2024-03-05T02:19:12.435Z,99972.25
2024-03-05T02:22:15.645Z,99974.06
2024-03-05T02:25:19.236Z,99973.94
2024-03-05T02:28:21.617Z,99973.47
2024-03-05T02:31:24.198Z,99969.16
2024-03-05T02:34:27.116Z,99971.00
2024-03-05T02:37:30.449Z,99970.56
2024-03-05T02:40:32.605Z,99966.09
2024-03-05T02:43:34.930Z,99964.25
2024-03-05T02:46:36.986Z,99958.41
2024-03-05T02:49:38.838Z,99955.34
2024-03-05T02:52:42.267Z,99954.25
2024-03-05T02:55:44.531Z,99956.88
2024-03-05T02:58:46.313Z,99955.47
2024-03-05T03:01:48.262Z,99960.38
2024-03-05T03:04:52.517Z,99963.94
2024-03-05T03:07:55.868Z,99959.66
2024-03-05T03:10:58.091Z,99957.94
2024-03-05T03:13:59.953Z,99969.47
2024-03-05T03:17:01.893Z,99962.53
2024-03-05T03:20:04.945Z,99971.00
2024-03-05T03:23:08.288Z,99971.78
2024-03-05T03:26:10.584Z,99971.63
2024-03-05T03:29:12.774Z,99968.41
2024-03-05T03:32:15.520Z,99975.00
2024-03-05T03:35:18.089Z,99967.97
2024-03-05T03:38:21.247Z,99973.31
2024-03-05T03:41:23.024Z,99980.84
2024-03-05T03:44:25.229Z,99984.22
2024-03-05T03:47:26.959Z,99978.88
2024-03-05T03:50:28.672Z,99983.31
2024-03-05T03:53:34.753Z,99985.16
2024-03-05T03:56:37.214Z,99992.84
2024-03-05T03:59:38.967Z,99987.31
2024-03-05T04:02:41.715Z,99994.84
2024-03-05T04:05:46.043Z,100002.69
2024-03-05T04:08:49.173Z,100001.13
2024-03-05T04:11:51.160Z,99999.78
2024-03-05T04:14:53.170Z,99995.31
2024-03-05T04:17:55.536Z,100001.16
2024-03-05T04:20:58.075Z,100002.81
2024-03-05T04:24:01.175Z,100010.34
2024-03-05T04:27:04.561Z,100009.88
2024-03-05T04:30:11.862Z,100008.22
2024-03-05T04:33:16.890Z,100008.38
2024-03-05T04:36:18.960Z,100014.38
2024-03-05T04:39:23.302Z,100008.84
2024-03-05T04:42:25.959Z,100008.81
2024-03-05T04:45:28.553Z,100019.31
2024-03-05T04:48:30.272Z,100020.81
2024-03-05T04:51:32.232Z,100024.34
2024-03-05T04:54:36.061Z,100017.47
2024-03-05T04:57:37.953Z,100020.06
2024-03-05T05:00:39.986Z,100021.94
2024-03-05T05:03:44.098Z,100026.97
2024-03-05T05:06:45.954Z,100024.69
2024-03-05T05:09:49.207Z,100029.91
2024-03-05T05:12:50.999Z,100016.84
2024-03-05T05:15:52.736Z,100022.81
2024-03-05T05:18:54.807Z,100021.16
2024-03-05T05:21:56.502Z,100023.78
2024-03-05T05:25:00.119Z,100029.16
2024-03-05T05:28:01.881Z,100026.38
2024-03-05T05:31:06.900Z,100032.69
2024-03-05T05:34:09.298Z,100035.28
2024-03-05T05:37:11.106Z,100026.53
2024-03-05T05:40:20.240Z,100025.63
2024-03-05T05:43:23.530Z,100016.06
2024-03-05T05:46:26.180Z,100021.31
2024-03-05T05:49:28.613Z,100025.44
2024-03-05T05:52:30.390Z,100027.28
2024-03-05T05:55:35.980Z,100023.91
2024-03-05T05:58:38.007Z,100028.25
2024-03-05T06:01:39.996Z,100035.13
2024-03-05T06:04:42.519Z,100030.06
2024-03-05T06:07:44.751Z,100029.16
2024-03-05T06:10:47.967Z,100032.38
2024-03-05T06:13:49.946Z,100030.84
2024-03-05T06:16:51.812Z,100035.44
2024-03-05T06:19:56.307Z,100032.22
2024-03-05T06:23:00.395Z,100039.31
2024-03-05T06:26:03.976Z,100041.00
2024-03-05T06:29:07.831Z,100043.16
2024-03-05T06:32:11.472Z,100037.59
2024-03-05T06:35:13.413Z,100043.16
2024-03-05T06:38:16.139Z,100051.31
2024-03-05T06:41:20.146Z,100045.63
2024-03-05T06:44:26.587Z,100050.09
2024-03-05T06:47:39.061Z,100054.38
2024-03-05T06:50:44.206Z,100043.28
2024-03-05T06:54:04.682Z,100045.16
2024-03-05T06:57:09.614Z,100056.69
2024-03-05T07:00:18.663Z,100048.41
2024-03-05T07:03:23.333Z,100047.94
2024-03-05T07:06:25.162Z,100062.22
2024-03-05T07:09:31.829Z,100065.16
2024-03-05T07:12:35.998Z,100066.38
2024-03-05T07:15:37.784Z,100064.09
2024-03-05T07:18:39.528Z,100065.16
2024-03-05T07:21:41.374Z,100061.91
2024-03-05T07:24:43.125Z,100068.53
2024-03-05T07:27:50.466Z,100070.34
2024-03-05T07:30:52.195Z,100064.69
2024-03-05T07:33:55.757Z,100067.31
2024-03-05T07:36:57.507Z,100067.13
2024-03-05T07:39:59.281Z,100071.28
2024-03-05T07:43:09.801Z,100065.44
2024-03-05T07:46:11.820Z,100070.66
2024-03-05T07:49:13.839Z,100069.13
2024-03-05T07:52:15.739Z,100068.81
2024-03-05T07:55:25.709Z,100064.97
2024-03-05T07:58:32.410Z,100067.44
2024-03-05T08:01:34.748Z,100072.34
2024-03-05T08:04:36.615Z,100073.75
2024-03-05T08:07:38.561Z,100081.16
2024-03-05T08:10:40.395Z,100075.47
2024-03-05T08:13:46.762Z,100083.91
2024-03-05T08:16:48.814Z,100086.38
2024-03-05T08:19:50.798Z,100089.47
2024-03-05T08:22:53.871Z,100085.31
2024-03-05T08:25:55.900Z,100086.84
2024-03-05T08:28:59.441Z,100088.69
2024-03-05T08:32:01.595Z,100093.75
2024-03-05T08:35:03.568Z,100087.75
2024-03-05T08:38:05.797Z,100094.84
2024-03-05T08:41:07.794Z,100092.22
2024-03-05T08:44:11.062Z,100095.59
2024-03-05T08:47:14.174Z,100089.16
2024-03-05T08:50:16.765Z,100099.31
2024-03-05T08:53:18.473Z,100098.84
2024-03-05T08:56:20.277Z,100097.47
2024-03-05T08:59:23.431Z,100102.84
2024-03-05T09:02:25.513Z,100109.78
2024-03-05T09:05:27.444Z,100115.31
2024-03-05T09:08:29.215Z,100107.78
2024-03-05T09:11:30.982Z,100106.69
2024-03-05T09:14:35.476Z,100110.72
2024-03-05T09:17:37.552Z,100107.31
2024-03-05T09:20:39.498Z,100108.56
2024-03-05T09:23:41.396Z,100106.25
2024-03-05T09:26:43.485Z,100118.84
2024-03-05T09:29:47.200Z,100116.56
2024-03-05T09:32:49.002Z,100124.41
2024-03-05T09:35:50.980Z,100121.19
2024-03-05T09:38:52.886Z,100128.56
2024-03-05T09:41:54.714Z,100125.50
2024-03-05T09:44:57.812Z,100127.03
2024-03-05T09:48:00.334Z,100128.72
2024-03-05T09:51:03.437Z,100132.88
2024-03-05T09:54:07.385Z,100137.78
2024-03-05T09:57:09.524Z,100139.97
2024-03-05T10:00:21.756Z,100133.47
2024-03-05T10:03:23.743Z,100139.03
2024-03-05T10:06:26.305Z,100149.19
2024-03-05T10:09:28.411Z,100141.19
2024-03-05T10:12:30.624Z,100149.31
2024-03-05T10:15:37.021Z,100151.19
2024-03-05T10:18:38.808Z,100156.09
2024-03-05T10:21:40.943Z,100153.50
2024-03-05T10:24:42.765Z,100153.50
2024-03-05T10:27:46.870Z,100155.81
2024-03-05T10:30:59.637Z,100157.63
2024-03-05T10:34:01.401Z,100163.97
2024-03-05T10:37:05.451Z,100157.19
2024-03-05T10:40:10.133Z,100170.13
2024-03-05T10:43:12.072Z,100162.13
2024-03-05T10:46:15.499Z,100171.50
2024-03-05T10:49:20.675Z,100175.97
2024-03-05T10:52:26.035Z,100174.13
2024-03-05T10:55:28.708Z,100177.97
2024-03-05T10:58:53.438Z,100175.81
2024-03-05T11:01:59.892Z,100182.59
2024-03-05T11:05:03.573Z,100177.22
2024-03-05T11:08:07.508Z,100178.91
2024-03-05T11:11:15.026Z,100180.44
2024-03-05T11:14:18.802Z,100177.53
2024-03-05T11:17:23.793Z,100175.69
2024-03-05T11:20:44.506Z,100175.22
2024-03-05T11:23:55.493Z,100179.66
2024-03-05T11:27:12.742Z,100174.72
2024-03-05T11:30:19.032Z,100174.59
2024-03-05T11:33:25.558Z,100173.97
2024-03-05T11:36:27.496Z,100175.22
2024-03-05T11:39:29.485Z,100174.13
2024-03-05T11:42:33.986Z,100175.69
2024-03-05T11:45:49.473Z,100179.81
2024-03-05T11:49:00.988Z,100177.03
2024-03-05T11:52:02.786Z,100175.03
2024-03-05T11:55:06.944Z,100175.19
2024-03-05T11:58:08.731Z,100177.81
2024-03-05T12:01:10.706Z,100176.59
2024-03-05T12:04:14.471Z,100180.44
2024-03-05T12:07:16.223Z,100181.38
2024-03-05T12:10:20.808Z,100174.13
2024-03-05T12:13:22.567Z,100177.66
2024-03-05T12:16:24.457Z,100171.50
2024-03-05T12:19:27.878Z,100170.59
2024-03-05T12:22:29.643Z,100177.38
2024-03-05T12:25:31.484Z,100174.59
2024-03-05T12:28:33.379Z,100170.59
2024-03-05T12:31:35.766Z,100171.97
2024-03-05T12:34:41.016Z,100172.16
2024-03-05T12:37:42.868Z,100172.75
2024-03-05T12:40:45.044Z,100170.59
2024-03-05T12:43:54.063Z,100165.38
2024-03-05T12:47:09.493Z,100173.22
2024-03-05T12:50:13.736Z,100176.16
2024-03-05T12:53:15.929Z,100170.44
2024-03-05T12:56:17.891Z,100181.41
2024-03-05T12:59:20.789Z,100178.19
2024-03-05T13:02:22.682Z,100174.00
2024-03-05T13:05:25.816Z,100184.63
2024-03-05T13:08:27.671Z,100172.13
2024-03-05T13:11:29.525Z,100176.94
2024-03-05T13:14:31.822Z,100178.00
2024-03-05T13:17:34.028Z,100171.84
2024-03-05T13:20:37.962Z,100171.38
2024-03-05T13:23:41.451Z,100171.53
2024-03-05T13:26:47.571Z,100166.13
2024-03-05T13:29:55.915Z,100167.69
2024-03-05T13:33:05.976Z,100177.81
2024-03-05T13:36:13.293Z,100170.13
2024-03-05T13:39:19.409Z,100174.13
2024-03-05T13:42:22.266Z,100169.50
2024-03-05T13:45:24.039Z,100174.72
2024-03-05T13:48:26.821Z,100170.13
2024-03-05T13:51:30.357Z,100169.00
2024-03-05T13:54:32.171Z,100162.19
2024-03-05T13:57:34.069Z,100164.69
2024-03-05T14:00:39.021Z,100154.31
2024-03-05T14:03:40.832Z,100161.09
2024-03-05T14:06:43.863Z,100161.97
2024-03-05T14:09:46.921Z,100161.84
2024-03-05T14:12:51.441Z,100159.94
2024-03-05T14:15:53.370Z,100164.88
2024-03-05T14:18:55.322Z,100162.75
2024-03-05T14:22:01.374Z,100164.72
2024-03-05T14:25:03.671Z,100158.38
2024-03-05T14:28:09.334Z,100172.22
2024-03-05T14:31:12.633Z,100159.13
2024-03-05T14:34:14.435Z,100164.53
2024-03-05T14:37:17.450Z,100167.13
2024-03-05T14:40:19.917Z,100154.84
2024-03-05T14:43:22.449Z,100165.78
2024-03-05T14:46:26.053Z,100163.03
2024-03-05T14:49:28.257Z,100163.50
2024-03-05T14:52:31.418Z,100168.91
2024-03-05T14:55:33.323Z,100172.28
2024-03-05T14:58:35.309Z,100180.31
2024-03-05T15:01:37.106Z,100177.72
2024-03-05T15:04:39.110Z,100175.25
2024-03-05T15:07:43.761Z,100187.69
2024-03-05T15:10:45.649Z,100184.94
2024-03-05T15:13:47.566Z,100187.25
2024-03-05T15:16:49.402Z,100184.63
2024-03-05T15:19:51.176Z,100182.47
2024-03-05T15:22:54.581Z,100184.25
2024-03-05T15:25:56.373Z,100185.91
2024-03-05T15:28:59.764Z,100179.25
2024-03-05T15:32:02.517Z,100187.66
2024-03-05T15:35:05.375Z,100183.88
2024-03-05T15:38:09.228Z,100181.25
2024-03-05T15:41:11.432Z,100184.56
2024-03-05T15:44:13.481Z,100187.38
2024-03-05T15:47:15.405Z,100183.19
2024-03-05T15:50:22.435Z,100180.59
2024-03-05T15:53:26.033Z,100180.13
2024-03-05T15:56:46.694Z,100184.69
2024-03-05T16:00:07.695Z,100184.50
2024-03-05T16:03:15.054Z,100177.81
2024-03-05T16:06:19.435Z,100182.13
2024-03-05T16:09:23.179Z,100185.59
2024-03-05T16:12:25.151Z,100186.56
2024-03-05T16:15:27.746Z,100195.78
2024-03-05T16:18:29.701Z,100192.28
2024-03-05T16:21:34.297Z,100192.28
2024-03-05T16:24:37.374Z,100198.47
2024-03-05T16:27:40.935Z,100201.78
2024-03-05T16:30:43.551Z,100192.97
2024-03-05T16:33:45.697Z,100201.78
2024-03-05T16:36:48.571Z,100199.25
2024-03-05T16:39:52.021Z,100203.69
2024-03-05T16:42:55.142Z,100209.38
2024-03-05T16:45:58.518Z,100207.72
2024-03-05T16:49:02.243Z,100212.81
2024-03-05T16:52:05.561Z,100209.13
2024-03-05T16:55:10.489Z,100216.16
2024-03-05T16:58:15.433Z,100219.09
2024-03-05T17:01:19.713Z,100216.06
2024-03-05T17:04:24.804Z,100215.28
2024-03-05T17:07:28.655Z,100220.66
2024-03-05T17:10:35.462Z,100224.06
2024-03-05T17:13:42.366Z,100218.84
2024-03-05T17:16:46.856Z,100224.47
2024-03-05T17:19:48.877Z,100228.47
2024-03-05T17:22:53.121Z,100235.09
2024-03-05T17:25:58.064Z,100238.75
2024-03-05T17:29:06.953Z,100237.34
2024-03-05T17:32:10.774Z,100241.50
2024-03-05T17:35:12.992Z,100250.28
2024-03-05T17:38:15.155Z,100251.97
2024-03-05T17:41:18.563Z,100262.28
2024-03-05T17:44:20.455Z,100265.59
2024-03-05T17:47:22.721Z,100269.78
2024-03-05T17:50:25.784Z,100265.66
2024-03-05T17:53:27.660Z,100265.94
2024-03-05T17:56:31.301Z,100269.72
2024-03-05T17:59:33.726Z,100269.38
2024-03-05T18:02:36.435Z,100269.47
2024-03-05T18:05:38.644Z,100267.75
2024-03-05T18:08:40.655Z,100274.50
2024-03-05T18:11:43.793Z,100276.81
2024-03-05T18:14:47.041Z,100280.78
2024-03-05T18:17:50.024Z,100275.44
2024-03-05T18:20:51.923Z,100278.00
2024-03-05T18:23:55.590Z,100284.34
2024-03-05T18:27:04.885Z,100283.56
2024-03-05T18:30:09.075Z,100277.59
2024-03-05T18:33:12.516Z,100291.53
2024-03-05T18:36:16.759Z,100295.47
2024-03-05T18:39:19.009Z,100297.91
2024-03-05T18:42:22.325Z,100293.78
2024-03-05T18:45:29.315Z,100294.75
2024-03-05T18:48:31.434Z,100293.47
2024-03-05T18:51:33.821Z,100294.16
2024-03-05T18:54:35.703Z,100302.25
2024-03-05T18:57:39.012Z,100303.00
2024-03-05T19:00:44.488Z,100305.00
2024-03-05T19:03:46.441Z,100303.78
2024-03-05T19:06:49.035Z,100297.19
2024-03-05T19:09:50.742Z,100298.81
2024-03-05T19:12:55.131Z,100296.03
2024-03-05T19:15:56.848Z,100301.75
2024-03-05T19:18:58.717Z,100293.47
2024-03-05T19:22:00.376Z,100302.84
2024-03-05T19:25:03.356Z,100306.28
2024-03-05T19:28:07.971Z,100312.31
2024-03-05T19:31:10.822Z,100308.38
2024-03-05T19:34:13.115Z,100314.75
2024-03-05T19:37:16.418Z,100317.38
2024-03-05T19:40:20.369Z,100315.19
2024-03-05T19:43:23.602Z,100318.44
2024-03-05T19:46:25.586Z,100327.66
2024-03-05T19:49:29.197Z,100325.69
2024-03-05T19:52:31.105Z,100331.63
2024-03-05T19:55:34.552Z,100328.16
2024-03-05T19:58:38.420Z,100331.34
2024-03-05T20:01:40.571Z,100322.03
2024-03-05T20:04:42.399Z,100324.13
2024-03-05T20:07:45.662Z,100324.94
2024-03-05T20:10:47.914Z,100325.72
2024-03-05T20:13:51.140Z,100332.75
2024-03-05T20:16:53.267Z,100336.56
2024-03-05T20:19:55.198Z,100332.88
2024-03-05T20:22:57.571Z,100337.72
2024-03-05T20:25:59.443Z,100328.47
2024-03-05T20:29:03.901Z,100334.25
2024-03-05T20:32:07.272Z,100335.78
2024-03-05T20:35:13.544Z,100343.63
2024-03-05T20:38:15.718Z,100357.53
2024-03-05T20:41:18.668Z,100348.75
2024-03-05T20:44:21.942Z,100351.09
2024-03-05T20:47:23.810Z,100352.94
2024-03-05T20:50:25.756Z,100351.03
2024-03-05T20:53:27.511Z,100356.59
2024-03-05T20:56:29.320Z,100357.34
2024-03-05T20:59:34.789Z,100354.38
2024-03-05T21:02:37.052Z,100349.47
2024-03-05T21:05:41.732Z,100358.03
2024-03-05T21:08:43.661Z,100357.28
2024-03-05T21:11:47.309Z,100359.19
2024-03-05T21:14:50.553Z,100364.38
2024-03-05T21:17:55.177Z,100367.22
2024-03-05T21:20:57.140Z,100367.63
2024-03-05T21:23:58.970Z,100374.63
2024-03-05T21:27:16.123Z,100366.25
2024-03-05T21:30:24.152Z,100364.38
2024-03-05T21:33:26.169Z,100370.09
2024-03-05T21:36:28.047Z,100369.63
2024-03-05T21:39:29.964Z,100369.84
2024-03-05T21:42:32.223Z,100368.59
2024-03-05T21:45:36.546Z,100380.66
2024-03-05T21:48:38.480Z,100372.16
2024-03-05T21:51:40.385Z,100373.88
2024-03-05T21:54:42.265Z,100377.59
2024-03-05T21:57:44.360Z,100377.25
2024-03-05T22:00:48.649Z,100378.19
2024-03-05T22:03:50.552Z,100374.88
2024-03-05T22:06:55.793Z,100382.75
2024-03-05T22:09:58.026Z,100382.56
2024-03-05T22:12:59.817Z,100380.94
2024-03-05T22:16:03.552Z,100382.97
2024-03-05T22:19:06.055Z,100382.22
2024-03-05T22:22:10.220Z,100383.31
2024-03-05T22:25:11.997Z,100379.06
2024-03-05T22:28:16.041Z,100377.19
2024-03-05T22:31:19.189Z,100382.75
2024-03-05T22:34:21.094Z,100383.47
2024-03-05T22:37:22.944Z,100381.94
2024-03-05T22:40:24.807Z,100384.94
2024-03-05T22:43:27.203Z,100392.00
2024-03-05T22:46:30.466Z,100394.97
2024-03-05T22:49:32.417Z,100396.41
2024-03-05T22:52:34.429Z,100400.13
2024-03-05T22:55:36.880Z,100407.56
2024-03-05T22:58:39.068Z,100410.91
2024-03-05T23:01:42.512Z,100413.16
2024-03-05T23:04:44.372Z,100413.34
2024-03-05T23:07:47.203Z,100419.34
2024-03-05T23:10:49.803Z,100429.34
2024-03-05T23:13:53.422Z,100425.63
2024-03-05T23:16:56.921Z,100430.84
2024-03-05T23:19:59.040Z,100433.63
2024-03-05T23:23:00.985Z,100423.00
2024-03-05T23:26:03.778Z,100424.28
2024-03-05T23:29:05.923Z,100430.66
2024-03-05T23:32:09.844Z,100414.84
2024-03-05T23:35:12.518Z,100417.06
2024-03-05T23:38:14.420Z,100419.84
2024-03-05T23:41:24.848Z,100429.22
2024-03-05T23:44:33.426Z,100428.44
2024-03-05T23:47:37.045Z,100439.66
2024-03-05T23:50:38.869Z,100450.41
2024-03-05T23:53:40.698Z,100447.06
2024-03-05T23:56:42.647Z,100454.16
2024-03-05T23:59:45.835Z,100458.25
